createdAt,value
2018-03-23T00:00:21.027Z,31.70
2018-03-23T00:02:48.551Z,41.22
2018-03-23T00:05:16.099Z,34.92
2018-03-23T00:07:43.726Z,37.78
2018-03-23T00:10:11.287Z,54.17
2018-03-23T00:12:38.810Z,46.60
2018-03-23T00:15:07.125Z,34.47
2018-03-23T00:17:34.690Z,41.92
2018-03-23T00:20:02.218Z,36.22
2018-03-23T00:22:30.528Z,39.97
2018-03-23T00:24:58.062Z,39.38
2018-03-23T00:27:25.615Z,39.53
2018-03-23T00:29:53.933Z,40.75
2018-03-23T00:32:21.478Z,42.70
2018-03-23T00:34:49.007Z,45.45
2018-03-23T00:37:17.327Z,43.00
2018-03-23T00:39:44.864Z,38.33
2018-03-23T00:42:13.183Z,44.03
2018-03-23T00:44:40.718Z,41.67
2018-03-23T00:47:08.267Z,40.53
2018-03-23T00:49:36.567Z,50.38
2018-03-23T00:52:04.115Z,45.10
2018-03-23T00:54:31.710Z,43.50
2018-03-23T00:56:59.271Z,42.95
2018-03-23T00:59:26.815Z,37.95
2018-03-23T01:01:54.337Z,42.35
2018-03-23T01:04:21.958Z,43.70
2018-03-23T01:06:49.481Z,37.42
2018-03-23T01:09:17.794Z,39.42
2018-03-23T01:11:45.327Z,31.37
2018-03-23T01:14:12.879Z,36.85
2018-03-23T01:16:41.178Z,30.25
2018-03-23T01:19:08.731Z,35.80
2018-03-23T01:21:37.020Z,37.95
2018-03-23T01:24:04.570Z,28.87
2018-03-23T01:26:32.165Z,34.92
2018-03-23T01:28:59.691Z,30.90
2018-03-23T01:31:28.006Z,28.50
2018-03-23T01:33:55.538Z,33.33
2018-03-23T01:36:23.081Z,38.17
2018-03-23T01:38:51.375Z,52.33
2018-03-23T01:41:18.926Z,51.67
2018-03-23T01:43:47.222Z,39.00
2018-03-23T01:46:14.775Z,43.70
2018-03-23T01:48:42.370Z,45.17
2018-03-23T01:51:09.918Z,57.53
2018-03-23T01:53:43.374Z,44.92
2018-03-23T01:56:11.682Z,41.17
2018-03-23T01:58:39.214Z,38.80
2018-03-23T02:01:06.754Z,39.60
2018-03-23T02:03:34.313Z,28.83
2018-03-23T02:06:01.842Z,31.40
2018-03-23T02:08:29.386Z,31.45
2018-03-23T02:10:56.982Z,29.83
2018-03-23T02:13:24.536Z,36.90
2018-03-23T02:15:52.062Z,38.50
2018-03-23T02:18:20.383Z,35.83
2018-03-23T02:20:47.906Z,36.85
2018-03-23T02:23:16.332Z,31.85
2018-03-23T02:25:43.889Z,34.95
2018-03-23T02:28:11.439Z,40.28
2018-03-23T02:30:38.966Z,42.00
2018-03-23T02:33:07.282Z,40.28
2018-03-23T02:35:34.809Z,33.85
2018-03-23T02:38:02.359Z,32.33
2018-03-23T02:40:29.985Z,33.40
2018-03-23T02:42:57.519Z,27.65
2018-03-23T02:45:25.071Z,32.03
2018-03-23T02:47:52.608Z,33.13
2018-03-23T02:50:20.922Z,30.75
2018-03-23T02:52:48.451Z,31.95
2018-03-23T02:55:16.779Z,28.67
2018-03-23T02:57:44.302Z,34.40
2018-03-23T03:00:12.613Z,36.38
2018-03-23T03:02:40.149Z,27.67
2018-03-23T03:05:07.689Z,28.58
2018-03-23T03:07:35.992Z,30.02
2018-03-23T03:10:03.533Z,29.65
2018-03-23T03:12:31.829Z,30.55
2018-03-23T03:14:59.430Z,32.15
2018-03-23T03:17:26.957Z,28.10
2018-03-23T03:19:54.501Z,29.98
2018-03-23T03:22:22.799Z,29.17
2018-03-23T03:24:50.347Z,26.48
2018-03-23T03:27:18.667Z,29.30
2018-03-23T03:29:46.226Z,26.70
2018-03-23T03:32:13.751Z,25.60
2018-03-23T03:34:42.066Z,23.85
2018-03-23T03:37:09.620Z,27.20
2018-03-23T03:39:37.141Z,17.30
2018-03-23T03:42:05.453Z,21.27
2018-03-23T03:44:32.975Z,21.17
2018-03-23T03:47:00.596Z,31.83
2018-03-23T03:49:28.124Z,35.83
2018-03-23T03:51:56.438Z,26.62
2018-03-23T03:54:23.967Z,21.80
2018-03-23T03:56:52.286Z,28.35
2018-03-23T03:59:19.814Z,23.27
2018-03-23T04:01:47.362Z,24.50
2018-03-23T04:04:15.654Z,29.80
2018-03-23T04:06:43.969Z,31.10
2018-03-23T04:09:11.526Z,32.10
2018-03-23T04:11:39.095Z,32.83
2018-03-23T04:14:06.622Z,37.00
2018-03-23T04:16:34.933Z,43.20
2018-03-23T04:19:02.494Z,44.15
2018-03-23T04:21:30.051Z,32.55
2018-03-23T04:23:57.585Z,36.67
2018-03-23T04:26:25.899Z,34.60
2018-03-23T04:28:53.538Z,34.88
2018-03-23T04:31:21.142Z,33.65
2018-03-23T04:33:48.702Z,26.02
2018-03-23T04:36:16.230Z,33.45
2018-03-23T04:38:43.778Z,31.23
2018-03-23T04:41:12.075Z,33.30
2018-03-23T04:43:39.655Z,41.42
2018-03-23T04:46:07.191Z,29.85
2018-03-23T04:48:34.738Z,33.83
2018-03-23T04:51:03.026Z,39.17
2018-03-23T04:53:30.573Z,25.83
2018-03-23T04:55:58.869Z,32.42
2018-03-23T04:58:27.186Z,21.80
2018-03-23T05:00:54.716Z,24.10
2018-03-23T05:03:22.242Z,23.08
2018-03-23T05:05:49.782Z,30.08
2018-03-23T05:08:17.314Z,44.28
2018-03-23T05:10:44.863Z,36.80
2018-03-23T05:13:12.390Z,31.20
2018-03-23T05:15:40.014Z,41.53
2018-03-23T05:18:07.542Z,35.40
2018-03-23T05:20:35.854Z,29.42
2018-03-23T05:23:03.414Z,27.60
2018-03-23T05:25:30.957Z,30.17
2018-03-23T05:27:58.485Z,26.02
2018-03-23T05:30:26.034Z,27.10
2018-03-23T05:32:53.567Z,28.58
2018-03-23T05:35:21.133Z,37.28
2018-03-23T05:37:48.653Z,39.33
2018-03-23T05:40:16.179Z,26.20
2018-03-23T05:42:43.727Z,24.98
2018-03-23T05:45:11.251Z,26.90
2018-03-23T05:47:38.799Z,21.80
2018-03-23T05:50:06.334Z,19.73
2018-03-23T05:52:34.798Z,37.15
2018-03-23T05:55:02.322Z,27.27
2018-03-23T05:57:29.867Z,19.70
2018-03-23T05:59:57.453Z,24.35
2018-03-23T06:02:24.970Z,22.35
2018-03-23T06:04:53.257Z,16.08
2018-03-23T06:07:21.566Z,32.40
2018-03-23T06:09:49.090Z,19.33
2018-03-23T06:12:17.404Z,17.20
2018-03-23T06:14:44.926Z,19.77
2018-03-23T06:17:13.238Z,26.98
2018-03-23T06:19:40.762Z,21.70
2018-03-23T06:22:08.310Z,31.10
2018-03-23T06:24:35.838Z,37.08
2018-03-23T06:27:03.367Z,34.33
2018-03-23T06:29:30.926Z,29.70
2018-03-23T06:31:59.218Z,28.02
2018-03-23T06:34:26.762Z,33.63
2018-03-23T06:36:55.055Z,36.33
2018-03-23T06:39:22.597Z,36.78
2018-03-23T06:41:50.893Z,38.63
2018-03-23T06:44:18.434Z,40.72
2018-03-23T06:46:46.725Z,38.65
2018-03-23T06:49:16.365Z,44.88
2018-03-23T06:51:44.134Z,51.45
2018-03-23T06:54:11.678Z,39.45
2018-03-23T06:56:39.214Z,41.03
2018-03-23T06:59:07.534Z,43.58
2018-03-23T07:01:35.062Z,44.45
2018-03-23T07:04:03.383Z,48.75
2018-03-23T07:06:30.911Z,45.10
2018-03-23T07:08:58.453Z,45.63
2018-03-23T07:11:26.757Z,44.65
2018-03-23T07:13:54.313Z,49.30
2018-03-23T07:16:21.912Z,37.67
2018-03-23T07:18:49.458Z,38.25
2018-03-23T07:21:17.008Z,48.40
2018-03-23T07:23:44.534Z,38.08
2018-03-23T07:26:12.845Z,36.95
2018-03-23T07:28:40.382Z,44.17
2018-03-23T07:31:08.707Z,46.65
2018-03-23T07:33:36.238Z,35.35
2018-03-23T07:36:04.552Z,43.23
2018-03-23T07:38:32.085Z,42.33
2018-03-23T07:40:59.634Z,42.78
2018-03-23T07:43:27.935Z,44.97
2018-03-23T07:45:55.486Z,44.78
2018-03-23T07:48:23.018Z,42.62
2018-03-23T07:50:50.573Z,45.33
2018-03-23T07:53:18.102Z,47.17
2018-03-23T07:55:45.637Z,44.38
2018-03-23T07:58:13.182Z,43.53
2018-03-23T08:00:41.477Z,46.03
2018-03-23T08:03:09.021Z,46.13
2018-03-23T08:05:36.545Z,38.20
2018-03-23T08:08:04.870Z,49.40
2018-03-23T08:10:33.157Z,43.63
2018-03-23T08:13:00.713Z,39.60
2018-03-23T08:15:28.251Z,42.40
2018-03-23T08:17:56.570Z,41.75
2018-03-23T08:20:24.090Z,53.40
2018-03-23T08:22:51.646Z,49.47
2018-03-23T08:25:19.169Z,44.27
2018-03-23T08:27:46.705Z,46.60
2018-03-23T08:30:14.998Z,50.37
2018-03-23T08:32:42.545Z,53.10
2018-03-23T08:35:10.830Z,53.83
2018-03-23T08:37:38.356Z,52.80
2018-03-23T08:40:06.659Z,47.20
2018-03-23T08:42:34.951Z,51.40
2018-03-23T08:45:02.498Z,39.60
2018-03-23T08:47:30.786Z,56.77
2018-03-23T08:49:58.375Z,42.40
2018-03-23T08:52:25.904Z,42.20
2018-03-23T08:54:53.448Z,57.00
2018-03-23T08:57:21.739Z,49.97
2018-03-23T08:59:50.049Z,49.43
2018-03-23T09:02:17.581Z,48.27
2018-03-23T09:04:45.145Z,44.90
2018-03-23T09:07:13.431Z,42.57
2018-03-23T09:09:41.739Z,48.70
2018-03-23T09:12:09.266Z,38.00
2018-03-23T09:14:37.802Z,46.97
2018-03-23T09:17:05.409Z,49.07
2018-03-23T09:19:33.699Z,34.37
2018-03-23T09:22:01.249Z,50.57
2018-03-23T09:24:29.538Z,37.50
2018-03-23T09:26:57.843Z,43.53
2018-03-23T09:29:25.380Z,38.53
2018-03-23T09:31:53.692Z,45.37
2018-03-23T09:34:21.209Z,39.17
2018-03-23T09:36:49.522Z,37.87
2018-03-23T09:39:17.093Z,40.70
2018-03-23T09:41:44.643Z,36.97
2018-03-23T09:44:12.171Z,36.73
2018-03-23T09:46:40.494Z,36.83
2018-03-23T09:49:08.019Z,32.03
2018-03-23T09:51:36.338Z,33.13
2018-03-23T09:54:03.864Z,38.60
2018-03-23T09:56:32.150Z,44.13
2018-03-23T09:58:59.697Z,38.83
2018-03-23T10:01:29.009Z,42.07
2018-03-23T10:03:57.442Z,34.17
2018-03-23T10:06:24.853Z,39.60
2018-03-23T10:08:53.166Z,36.50
2018-03-23T10:11:20.689Z,43.60
2018-03-23T10:13:49.003Z,33.07
2018-03-23T10:16:16.522Z,40.30
2018-03-23T10:18:44.840Z,37.20
2018-03-23T10:21:12.365Z,35.73
2018-03-23T10:23:40.675Z,37.83
2018-03-23T10:26:08.202Z,31.43
2018-03-23T10:28:37.353Z,38.40
2018-03-23T10:31:04.871Z,35.47
2018-03-23T10:33:32.414Z,31.60
2018-03-23T10:36:00.710Z,35.17
2018-03-23T10:38:29.018Z,37.80
2018-03-23T10:40:56.537Z,29.37
2018-03-23T10:43:24.843Z,35.07
2018-03-23T10:45:52.371Z,35.10
2018-03-23T10:48:19.915Z,30.27
2018-03-23T10:50:47.435Z,53.77
2018-03-23T10:53:14.979Z,25.00
2018-03-23T10:55:42.503Z,30.43
2018-03-23T10:58:10.047Z,31.47
2018-03-23T11:00:43.319Z,30.33
2018-03-23T11:03:10.867Z,33.50
2018-03-23T11:05:38.396Z,34.73
2018-03-23T11:08:06.733Z,29.13
2018-03-23T11:10:34.263Z,30.97
2018-03-23T11:13:02.559Z,31.63
2018-03-23T11:15:30.099Z,25.13
2018-03-23T11:17:58.401Z,27.27
2018-03-23T11:20:25.944Z,29.47
2018-03-23T11:22:54.230Z,28.67
2018-03-23T11:25:21.783Z,26.20
2018-03-23T11:27:49.311Z,30.70
2018-03-23T11:30:16.932Z,28.30
2018-03-23T11:32:44.398Z,23.50
2018-03-23T11:35:11.940Z,29.07
2018-03-23T11:37:39.472Z,24.13
2018-03-23T11:40:07.778Z,22.70
2018-03-23T11:42:35.358Z,23.70
2018-03-23T11:45:02.903Z,21.70
2018-03-23T11:47:30.435Z,27.17
2018-03-23T11:49:58.771Z,21.33
2018-03-23T11:52:26.306Z,25.27
2018-03-23T11:54:53.842Z,22.57
2018-03-23T11:57:22.129Z,20.83
2018-03-23T11:59:50.439Z,20.43
2018-03-23T12:02:17.971Z,27.03
2018-03-23T12:04:46.299Z,23.30
2018-03-23T12:07:13.827Z,24.40
2018-03-23T12:09:41.354Z,19.97
2018-03-23T12:12:08.900Z,19.07
2018-03-23T12:14:36.425Z,19.67
2018-03-23T12:17:03.971Z,19.70
2018-03-23T12:19:31.504Z,18.97
2018-03-23T12:21:59.808Z,15.70
2018-03-23T12:24:27.331Z,17.07
2018-03-23T12:26:54.875Z,13.00
2018-03-23T12:29:22.397Z,15.30
2018-03-23T12:31:49.948Z,17.20
2018-03-23T12:34:18.234Z,19.07
2018-03-23T12:36:45.773Z,18.53
2018-03-23T12:39:14.066Z,20.30
2018-03-23T12:41:41.609Z,12.33
2018-03-23T12:44:09.899Z,11.50
2018-03-23T12:46:38.186Z,15.80
2018-03-23T12:49:05.726Z,11.57
2018-03-23T12:51:33.243Z,14.03
2018-03-23T12:54:00.786Z,20.53
2018-03-23T12:56:28.305Z,15.40
2018-03-23T12:58:55.857Z,13.17
2018-03-23T13:01:23.381Z,18.90
2018-03-23T13:03:50.938Z,13.50
2018-03-23T13:06:18.467Z,13.10
2018-03-23T13:08:46.006Z,13.33
2018-03-23T13:11:14.304Z,11.67
2018-03-23T13:13:42.612Z,16.53
2018-03-23T13:16:10.134Z,11.73
2018-03-23T13:18:38.451Z,14.23
2018-03-23T13:21:05.969Z,11.37
2018-03-23T13:23:34.259Z,11.93
2018-03-23T13:26:02.561Z,10.13
2018-03-23T13:28:30.090Z,17.53
2018-03-23T13:30:58.395Z,11.20
2018-03-23T13:33:25.915Z,9.83
2018-03-23T13:35:53.453Z,13.33
2018-03-23T13:38:20.978Z,14.37
2018-03-23T13:40:48.519Z,10.70
2018-03-23T13:43:16.806Z,9.40
2018-03-23T13:45:45.111Z,15.93
2018-03-23T13:48:12.630Z,15.10
2018-03-23T13:50:40.915Z,11.80
2018-03-23T13:53:09.210Z,8.90
2018-03-23T13:55:36.721Z,9.40
2018-03-23T13:58:04.257Z,9.73
2018-03-23T14:00:37.590Z,9.27
2018-03-23T14:03:05.133Z,12.13
2018-03-23T14:05:32.662Z,30.97
2018-03-23T14:08:00.207Z,18.27
2018-03-23T14:10:27.735Z,14.37
2018-03-23T14:12:56.048Z,13.67
2018-03-23T14:15:23.566Z,10.03
2018-03-23T14:17:51.106Z,8.67
2018-03-23T14:20:18.637Z,13.33
2018-03-23T14:22:46.183Z,10.73
2018-03-23T14:25:14.466Z,14.63
2018-03-23T14:27:42.766Z,10.63
2018-03-23T14:30:10.303Z,11.20
2018-03-23T14:32:38.587Z,13.87
2018-03-23T14:35:06.126Z,11.23
2018-03-23T14:37:34.410Z,7.37
2018-03-23T14:40:02.711Z,7.30
2018-03-23T14:42:30.225Z,9.30
2018-03-23T14:44:57.760Z,8.27
2018-03-23T14:47:25.279Z,9.03
2018-03-23T14:49:53.582Z,6.10
2018-03-23T14:52:21.154Z,6.60
2018-03-23T14:54:49.413Z,5.50
2018-03-23T14:57:16.929Z,8.60
2018-03-23T14:59:44.466Z,6.30
2018-03-23T15:02:11.984Z,7.33
2018-03-23T15:04:39.532Z,6.83
2018-03-23T15:07:07.809Z,9.10
2018-03-23T15:09:35.368Z,10.00
2018-03-23T15:12:02.886Z,7.73
2018-03-23T15:14:30.416Z,8.00
2018-03-23T15:16:57.954Z,6.37
2018-03-23T15:19:25.463Z,8.73
2018-03-23T15:21:53.002Z,5.90
2018-03-23T15:24:20.521Z,5.80
2018-03-23T15:26:48.059Z,4.70
2018-03-23T15:29:15.582Z,4.80
2018-03-23T15:31:43.887Z,4.93
2018-03-23T15:34:11.407Z,5.13
2018-03-23T15:36:39.727Z,5.63
2018-03-23T15:39:07.257Z,7.40
2018-03-23T15:41:35.559Z,6.60
2018-03-23T15:44:03.089Z,5.20
2018-03-23T15:46:31.414Z,4.07
2018-03-23T15:48:58.928Z,5.90
2018-03-23T15:51:26.467Z,3.23
2018-03-23T15:53:53.995Z,6.70
2018-03-23T15:56:21.541Z,4.00
2018-03-23T15:58:49.825Z,7.13
2018-03-23T16:01:18.151Z,4.20
2018-03-23T16:03:45.675Z,4.17
2018-03-23T16:06:13.201Z,4.90
2018-03-23T16:08:40.745Z,6.23
2018-03-23T16:11:09.778Z,5.60
2018-03-23T16:13:38.090Z,8.07
2018-03-23T16:16:05.602Z,8.07
2018-03-23T16:18:33.162Z,6.90
2018-03-23T16:21:00.687Z,8.23
2018-03-23T16:23:28.231Z,4.73
2018-03-23T16:25:55.751Z,6.00
2018-03-23T16:28:23.294Z,6.93
2018-03-23T16:30:50.809Z,6.47
2018-03-23T16:33:18.342Z,5.90
2018-03-23T16:35:46.626Z,10.73
2018-03-23T16:38:14.937Z,8.87
2018-03-23T16:40:42.454Z,6.70
2018-03-23T16:43:09.991Z,6.90
2018-03-23T16:45:37.514Z,6.33
2018-03-23T16:48:05.071Z,5.47
2018-03-23T16:50:32.595Z,5.20
2018-03-23T16:53:00.118Z,5.03
2018-03-23T16:55:27.657Z,6.67
2018-03-23T16:57:55.178Z,5.67
2018-03-23T17:00:22.710Z,6.23
2018-03-23T17:02:50.222Z,6.87
2018-03-23T17:05:18.522Z,4.57
2018-03-23T17:07:46.097Z,6.97
2018-03-23T17:10:13.638Z,6.83
2018-03-23T17:12:41.919Z,8.10
2018-03-23T17:15:09.505Z,5.53
2018-03-23T17:17:37.027Z,6.77
2018-03-23T17:20:05.335Z,5.17
2018-03-23T17:22:32.861Z,4.80
2018-03-23T17:25:00.399Z,4.83
2018-03-23T17:27:27.927Z,6.03
2018-03-23T17:29:55.457Z,6.67
2018-03-23T17:32:23.744Z,5.40
2018-03-23T17:34:52.045Z,5.33
2018-03-23T17:37:19.566Z,6.00
2018-03-23T17:39:47.098Z,6.67
2018-03-23T17:42:14.614Z,4.30
2018-03-23T17:44:42.145Z,5.00
2018-03-23T17:47:10.438Z,6.47
2018-03-23T17:49:38.742Z,5.90
2018-03-23T17:52:06.311Z,8.97
2018-03-23T17:54:33.854Z,7.70
2018-03-23T17:57:01.434Z,7.20
2018-03-23T17:59:28.973Z,4.93
2018-03-23T18:01:56.491Z,7.87
2018-03-23T18:04:24.007Z,5.23
2018-03-23T18:06:51.577Z,6.17
2018-03-23T18:09:19.139Z,7.00
2018-03-23T18:11:46.671Z,5.60
2018-03-23T18:14:14.201Z,5.53
2018-03-23T18:16:42.509Z,5.70
2018-03-23T18:19:10.026Z,11.07
2018-03-23T18:21:37.561Z,9.40
2018-03-23T18:24:05.098Z,7.60
2018-03-23T18:26:32.678Z,7.93
2018-03-23T18:29:00.206Z,7.93
2018-03-23T18:31:28.510Z,7.00
2018-03-23T18:33:56.033Z,6.97
2018-03-23T18:36:24.360Z,5.47
2018-03-23T18:38:51.877Z,5.70
2018-03-23T18:41:20.162Z,6.53
2018-03-23T18:43:48.463Z,7.27
2018-03-23T18:46:15.977Z,7.50
2018-03-23T18:48:43.510Z,6.93
2018-03-23T18:51:11.030Z,12.00
2018-03-23T18:53:38.570Z,10.37
2018-03-23T18:56:06.855Z,10.10
2018-03-23T18:58:35.164Z,8.53
2018-03-23T19:01:02.737Z,9.00
2018-03-23T19:03:31.017Z,7.97
2018-03-23T19:05:58.544Z,4.10
2018-03-23T19:08:26.100Z,7.43
2018-03-23T19:10:54.387Z,7.07
2018-03-23T19:13:22.694Z,5.87
2018-03-23T19:15:50.270Z,4.97
2018-03-23T19:18:17.794Z,10.68
2018-03-23T19:20:45.311Z,9.00
2018-03-23T19:23:12.852Z,8.07
2018-03-23T19:25:40.382Z,10.50
2018-03-23T19:28:07.928Z,12.47
2018-03-23T19:30:36.216Z,8.20
2018-03-23T19:33:04.499Z,7.83
2018-03-23T19:35:32.034Z,8.03
2018-03-23T19:38:00.318Z,9.30
2018-03-23T19:40:28.621Z,9.43
2018-03-23T19:42:56.140Z,9.00
2018-03-23T19:45:23.691Z,11.00
2018-03-23T19:47:51.212Z,10.17
2018-03-23T19:50:18.762Z,11.63
2018-03-23T19:52:46.291Z,9.40
2018-03-23T19:55:14.607Z,13.17
2018-03-23T19:57:42.128Z,8.17
2018-03-23T20:00:09.670Z,13.93
2018-03-23T20:02:37.201Z,12.32
2018-03-23T20:05:04.747Z,8.93
2018-03-23T20:07:32.277Z,11.43
2018-03-23T20:10:01.322Z,8.87
2018-03-23T20:12:28.894Z,8.17
2018-03-23T20:14:56.449Z,12.18
2018-03-23T20:17:29.749Z,14.03
2018-03-23T20:19:57.319Z,10.90
2018-03-23T20:22:24.842Z,14.98
2018-03-23T20:24:52.401Z,13.70
2018-03-23T20:27:25.666Z,17.92
2018-03-23T20:29:53.219Z,11.88
2018-03-23T20:32:26.402Z,10.73
2018-03-23T20:34:53.965Z,14.25
2018-03-23T20:37:21.491Z,10.98
2018-03-23T20:39:49.019Z,9.70
2018-03-23T20:42:17.340Z,15.55
2018-03-23T20:44:44.858Z,14.27
2018-03-23T20:47:13.190Z,12.43
2018-03-23T20:49:40.719Z,12.30
2018-03-23T20:52:08.266Z,13.70
2018-03-23T20:54:36.554Z,11.17
2018-03-23T20:57:04.106Z,10.73
2018-03-23T20:59:32.394Z,15.60
2018-03-23T21:01:59.938Z,13.33
2018-03-23T21:04:28.252Z,12.17
2018-03-23T21:06:55.783Z,11.47
2018-03-23T21:09:24.079Z,10.37
2018-03-23T21:11:51.626Z,11.25
2018-03-23T21:14:19.909Z,10.60
2018-03-23T21:16:47.503Z,15.02
2018-03-23T21:19:15.027Z,14.77
2018-03-23T21:21:43.339Z,15.30
2018-03-23T21:24:10.862Z,17.90
2018-03-23T21:26:39.201Z,16.20
2018-03-23T21:29:06.746Z,16.30
2018-03-23T21:31:34.271Z,12.82
2018-03-23T21:34:02.583Z,12.37
2018-03-23T21:36:30.114Z,12.27
2018-03-23T21:38:57.678Z,21.00
2018-03-23T21:41:25.201Z,14.82
2018-03-23T21:43:52.742Z,17.25
2018-03-23T21:46:20.267Z,15.25
2018-03-23T21:48:47.810Z,12.13
2018-03-23T21:51:16.098Z,16.00
2018-03-23T21:53:43.649Z,20.37
2018-03-23T21:56:11.941Z,24.73
2018-03-23T21:58:39.479Z,28.58
2018-03-23T22:01:07.780Z,20.85
2018-03-23T22:03:35.329Z,19.08
2018-03-23T22:06:03.627Z,15.13
2018-03-23T22:08:31.200Z,17.00
2018-03-23T22:10:58.726Z,20.98
2018-03-23T22:13:27.023Z,13.15
2018-03-23T22:15:54.573Z,20.90
2018-03-23T22:18:22.865Z,18.98
2018-03-23T22:20:50.478Z,17.98
2018-03-23T22:23:18.010Z,21.52
2018-03-23T22:25:45.562Z,26.90
2018-03-23T22:28:13.139Z,23.92
2018-03-23T22:30:40.694Z,22.48
2018-03-23T22:33:08.227Z,35.55
2018-03-23T22:35:36.547Z,32.22
2018-03-23T22:38:04.074Z,30.52
2018-03-23T22:40:31.626Z,27.45
2018-03-23T22:42:59.929Z,27.85
2018-03-23T22:45:27.478Z,34.00
2018-03-23T22:47:55.007Z,25.05
2018-03-23T22:50:22.570Z,30.33
2018-03-23T22:52:50.094Z,33.17
2018-03-23T22:55:17.623Z,37.80
2018-03-23T22:57:45.176Z,39.28
2018-03-23T23:00:13.470Z,38.45
2018-03-23T23:02:41.022Z,26.95
2018-03-23T23:05:08.554Z,26.20
2018-03-23T23:07:36.103Z,25.25
2018-03-23T23:10:03.632Z,24.63
2018-03-23T23:12:31.176Z,21.42
2018-03-23T23:14:58.705Z,24.50
2018-03-23T23:17:26.247Z,21.98
2018-03-23T23:19:53.776Z,27.83
2018-03-23T23:22:21.328Z,24.75
2018-03-23T23:24:48.850Z,26.80
2018-03-23T23:27:16.395Z,31.52
2018-03-23T23:29:43.917Z,27.33
2018-03-23T23:32:11.470Z,25.98
2018-03-23T23:34:39.001Z,23.90
2018-03-23T23:37:07.323Z,27.10
2018-03-23T23:39:34.848Z,34.13
2018-03-23T23:42:03.146Z,26.10
2018-03-23T23:44:30.694Z,34.53
2018-03-23T23:46:58.990Z,21.35
2018-03-23T23:49:26.538Z,26.33
2018-03-23T23:51:54.138Z,34.88
2018-03-23T23:54:21.682Z,36.30
2018-03-23T23:56:49.223Z,24.85
2018-03-23T23:59:17.554Z,30.45
